Terminal Aerodrome Forecast
Issued by NWS Austin/San Antonio, TX

Home | Current Version | Previous Version | Text Only | Print | Product List | Glossary On
Versions: 1 2 3 4 5 6 7 8 9 10 11 12 13 14 15 16 17 18 19 20 21 22 23 24 25
819
FTUS44 KEWX 280758 AAA
TAFSAT
TAF AMD
KSAT 280758Z 2808/2912 13003KT P6SM BKN170
     FM280900 14003KT P6SM BKN007
     FM281400 18006KT P6SM BKN015
     FM281700 16008KT P6SM BKN040 PROB30 2818/2823 TSRA BKN040CB
     FM290800 16005KT P6SM BKN012=

USA.gov is the U.S. government's official web portal to all federal, state and local government web resources and services.